Terminal Aerodrome Forecast
Issued by NWS St Louis, MO

Home | Current Version | Previous Version | Text Only | Print | Product List | Glossary On
Versions: 1 2 3 4 5 6 7 8 9 10 11 12 13 14 15 16
000
FTUS43 KLSX 241200 AAA
TAFCOU
TAF AMD
KCOU 241258Z 2413/2512 VRB04KT 1SM BR OVC008
     FM241500 19007KT 3SM BR BKN015
     FM241700 20009KT P6SM SCT020
     FM250600 25005KT 3SM BR SCT250=

USA.gov is the U.S. government's official web portal to all federal, state and local government web resources and services.